Time;durP1;ratioP1;P1;durP2;ratioP2;P2;SDS_P1;SDS_P2;PMS_P1;PMS_P2;Temp;Humidity;BMP_temperature;BMP_pressure;BME280_temperature;BME280_humidity;BME280_pressure;Samples;Min_cycle;Max_cycle;Signal;HPM_P1;HPM_P2
2023/08/05 00:00:06;;;;;;;8.63;7.50;;;15.50;99.90;;;;;;6306553;22;20155;-47
2023/08/05 00:02:31;;;;;;;10.73;7.70;;;15.40;99.90;;;;;;6308155;22;20179;-45
2023/08/05 00:04:57;;;;;;;8.17;7.37;;;15.40;99.90;;;;;;6306134;22;20725;-47
2023/08/05 00:07:22;;;;;;;8.60;7.80;;;15.30;99.90;;;;;;6307193;22;20238;-45
2023/08/05 00:09:48;;;;;;;10.23;8.40;;;15.30;99.90;;;;;;6306281;22;20152;-45
2023/08/05 00:12:13;;;;;;;8.63;7.70;;;15.30;99.90;;;;;;6307071;22;20148;-48
2023/08/05 00:14:39;;;;;;;8.33;7.23;;;15.20;99.90;;;;;;6307336;22;20152;-45
2023/08/05 00:17:05;;;;;;;8.23;7.43;;;15.20;99.90;;;;;;6308019;22;20135;-45
2023/08/05 00:19:30;;;;;;;8.60;7.70;;;15.20;99.90;;;;;;6308673;22;20195;-45
2023/08/05 00:21:56;;;;;;;10.17;7.80;;;15.20;99.90;;;;;;6308988;22;20459;-45
2023/08/05 00:24:22;;;;;;;7.90;6.90;;;15.20;1.00;;;;;;6308632;22;20156;-46
2023/08/05 00:26:47;;;;;;;8.73;7.83;;;15.10;1.00;;;;;;6309973;22;20235;-44
2023/08/05 00:29:13;;;;;;;8.70;7.90;;;15.10;1.00;;;;;;6306511;22;20196;-45
2023/08/05 00:31:38;;;;;;;8.87;7.37;;;15.10;1.00;;;;;;6307121;22;20201;-44
2023/08/05 00:34:04;;;;;;;11.03;7.70;;;15.10;1.00;;;;;;6308650;22;20154;-44
2023/08/05 00:36:29;;;;;;;10.87;8.00;;;15.10;1.00;;;;;;6308018;22;20543;-47
2023/08/05 00:38:55;;;;;;;7.90;7.00;;;15.00;1.00;;;;;;6308412;22;20155;-46
2023/08/05 00:41:21;;;;;;;8.37;7.57;;;15.10;1.00;;;;;;6307569;22;20159;-48
2023/08/05 00:43:46;;;;;;;7.73;6.93;;;15.00;1.00;;;;;;6305904;22;20209;-46
2023/08/05 00:46:12;;;;;;;8.33;7.43;;;15.00;1.00;;;;;;6278531;22;20616;-46
2023/08/05 00:48:38;;;;;;;9.87;7.40;;;15.00;1.00;;;;;;6306234;22;20179;-45
2023/08/05 00:51:07;;;;;;;7.80;7.10;;;15.00;1.00;;;;;;6307612;22;20391;-46
2023/08/05 00:53:34;;;;;;;7.43;6.73;;;15.00;1.00;;;;;;6307094;22;20392;-45
2023/08/05 00:56:00;;;;;;;8.97;7.80;;;15.00;1.00;;;;;;6280097;22;20362;-44
2023/08/05 00:58:27;;;;;;;9.30;8.27;;;14.90;1.00;;;;;;6308527;22;20355;-47
2023/08/05 01:00:53;;;;;;;12.23;7.43;;;14.90;1.00;;;;;;6309777;22;20174;-48
2023/08/05 01:03:18;;;;;;;10.90;7.80;;;14.90;1.00;;;;;;6281811;22;20493;-47
2023/08/05 01:05:44;;;;;;;8.70;7.80;;;14.90;1.00;;;;;;6307353;22;20197;-45
2023/08/05 01:08:10;;;;;;;6.90;6.20;;;14.90;1.00;;;;;;6280200;22;20180;-45
2023/08/05 01:10:36;;;;;;;7.83;7.10;;;14.80;1.00;;;;;;6280197;22;20438;-45
2023/08/05 01:13:01;;;;;;;8.93;6.80;;;14.80;1.00;;;;;;6307092;22;20379;-46
2023/08/05 01:15:27;;;;;;;8.60;7.07;;;14.80;1.00;;;;;;6307581;22;20158;-46
2023/08/05 01:17:53;;;;;;;10.40;7.60;;;14.70;1.00;;;;;;6307474;22;20156;-47
2023/08/05 01:20:19;;;;;;;7.90;7.10;;;14.70;1.00;;;;;;6308597;22;20174;-45
2023/08/05 01:22:49;;;;;;;9.00;7.20;;;14.70;1.00;;;;;;6280752;22;20361;-45
2023/08/05 01:25:24;;;;;;;8.07;7.30;;;14.60;1.00;;;;;;6282836;22;20359;-45
2023/08/05 01:27:51;;;;;;;10.93;6.93;;;14.60;1.00;;;;;;6309171;22;20498;-44
2023/08/05 01:30:16;;;;;;;11.23;7.67;;;14.60;1.00;;;;;;6307227;22;20828;-45
2023/08/05 01:32:42;;;;;;;7.27;6.57;;;14.50;1.00;;;;;;6307193;22;20564;-45
2023/08/05 01:35:09;;;;;;;6.83;6.23;;;14.50;1.00;;;;;;6308591;22;20136;-48
2023/08/05 01:37:35;;;;;;;8.00;7.20;;;14.50;1.00;;;;;;6306410;22;20506;-44
2023/08/05 01:40:01;;;;;;;7.07;6.37;;;14.50;1.00;;;;;;6308924;22;20976;-45
2023/08/05 01:42:26;;;;;;;7.97;7.00;;;14.50;1.00;;;;;;6307989;22;20378;-44
2023/08/05 01:44:52;;;;;;;9.27;7.33;;;14.50;1.00;;;;;;6308321;22;20148;-45
2023/08/05 01:47:17;;;;;;;8.20;6.40;;;14.50;1.00;;;;;;6308690;22;20147;-45
2023/08/05 01:49:43;;;;;;;7.50;6.80;;;14.50;1.00;;;;;;6308312;22;20164;-46
2023/08/05 01:52:09;;;;;;;7.50;5.60;;;14.50;1.00;;;;;;6309543;22;20436;-47
2023/08/05 01:54:34;;;;;;;10.40;6.90;;;14.50;1.00;;;;;;6309730;22;20507;-44
2023/08/05 01:57:00;;;;;;;7.37;5.33;;;14.50;1.00;;;;;;6309036;22;20150;-45
2023/08/05 01:59:25;;;;;;;6.60;5.97;;;14.50;1.00;;;;;;6309085;22;20151;-45
2023/08/05 02:01:51;;;;;;;7.77;6.90;;;14.60;1.00;;;;;;6308928;22;20131;-44
2023/08/05 02:04:17;;;;;;;7.97;7.27;;;14.60;1.00;;;;;;6308986;22;20480;-45
2023/08/05 02:06:47;;;;;;;7.93;7.10;;;14.60;1.00;;;;;;6308977;22;20249;-44
2023/08/05 02:09:12;;;;;;;9.17;6.30;;;14.60;1.00;;;;;;6307878;22;20202;-45
2023/08/05 02:11:38;;;;;;;8.20;6.30;;;14.60;1.00;;;;;;6308971;22;20391;-45
2023/08/05 02:14:04;;;;;;;9.07;6.50;;;14.60;1.00;;;;;;6280230;22;20155;-46
2023/08/05 02:16:32;;;;;;;7.00;6.37;;;14.60;1.00;;;;;;6307343;22;20148;-45
2023/08/05 02:18:58;;;;;;;8.37;7.57;;;14.60;1.00;;;;;;6306726;22;20163;-45
2023/08/05 02:21:24;;;;;;;8.53;7.77;;;14.60;1.00;;;;;;6308480;22;20386;-47
2023/08/05 02:23:50;;;;;;;7.40;6.37;;;14.60;1.00;;;;;;6308018;22;20151;-45
2023/08/05 02:26:16;;;;;;;7.40;6.67;;;14.60;1.00;;;;;;6280618;22;20386;-48
2023/08/05 02:28:42;;;;;;;7.53;6.77;;;14.60;1.00;;;;;;6308768;22;20409;-45
2023/08/05 02:31:07;;;;;;;7.43;6.57;;;14.60;1.00;;;;;;6309379;22;20147;-46
2023/08/05 02:33:33;;;;;;;7.03;6.33;;;14.60;1.00;;;;;;6308927;22;20187;-46
2023/08/05 02:35:59;;;;;;;7.87;7.07;;;14.60;1.00;;;;;;6308161;22;20176;-46
2023/08/05 02:38:25;;;;;;;7.10;6.40;;;14.50;1.00;;;;;;6307752;22;20445;-45
2023/08/05 02:40:50;;;;;;;7.00;6.30;;;14.50;1.00;;;;;;6309593;22;20354;-45
2023/08/05 02:43:17;;;;;;;8.73;7.03;;;14.50;1.00;;;;;;6311003;22;20152;-46
2023/08/05 02:45:43;;;;;;;7.80;7.10;;;14.50;1.00;;;;;;6311497;22;20435;-48
2023/08/05 02:48:08;;;;;;;11.23;7.40;;;14.50;1.00;;;;;;6311348;22;20782;-47
2023/08/05 02:50:34;;;;;;;10.47;7.60;;;14.50;1.00;;;;;;6310843;22;20473;-45
2023/08/05 02:53:00;;;;;;;8.47;7.67;;;14.40;1.00;;;;;;6309673;22;20158;-45
2023/08/05 02:55:27;;;;;;;10.30;6.87;;;14.40;1.00;;;;;;6309429;22;20350;-47
2023/08/05 02:57:53;;;;;;;8.30;7.50;;;14.40;1.00;;;;;;6282602;22;20155;-45
2023/08/05 03:00:18;;;;;;;6.90;6.20;;;14.30;1.00;;;;;;6310913;22;20385;-45
2023/08/05 03:02:44;;;;;;;7.93;7.13;;;14.30;1.00;;;;;;6310682;22;20382;-45
2023/08/05 03:05:10;;;;;;;8.50;7.70;;;14.30;1.00;;;;;;6309802;22;20431;-45
2023/08/05 03:07:35;;;;;;;8.03;7.20;;;14.30;1.00;;;;;;6310454;22;20455;-45
2023/08/05 03:10:01;;;;;;;8.03;7.30;;;14.30;1.00;;;;;;6311251;22;20152;-45
2023/08/05 03:12:26;;;;;;;8.00;7.20;;;14.30;1.00;;;;;;6309972;22;20148;-45
2023/08/05 03:14:52;;;;;;;8.73;7.43;;;14.30;1.00;;;;;;6309485;22;20228;-46
2023/08/05 03:17:18;;;;;;;8.10;7.10;;;14.20;1.00;;;;;;6306294;22;20148;-46
2023/08/05 03:19:43;;;;;;;7.90;6.80;;;14.20;1.00;;;;;;6305994;22;20400;-48
2023/08/05 03:22:09;;;;;;;11.43;9.10;;;14.20;1.00;;;;;;6308187;22;20162;-47
2023/08/05 03:24:34;;;;;;;7.87;7.07;;;14.20;1.00;;;;;;6308985;22;20159;-48
2023/08/05 03:27:00;;;;;;;8.40;7.57;;;14.20;1.00;;;;;;6308832;22;20155;-47
2023/08/05 03:29:26;;;;;;;10.80;7.93;;;14.20;1.00;;;;;;6309484;22;20601;-46
2023/08/05 03:31:51;;;;;;;7.97;7.17;;;14.20;1.00;;;;;;6282591;22;20124;-46
2023/08/05 03:34:18;;;;;;;8.50;7.63;;;14.20;1.00;;;;;;6309670;22;20140;-49
2023/08/05 03:36:43;;;;;;;10.63;6.80;;;14.20;1.00;;;;;;6309670;22;20441;-47
2023/08/05 03:39:09;;;;;;;8.23;7.50;;;14.20;1.00;;;;;;6309692;22;20394;-47
2023/08/05 03:41:35;;;;;;;8.23;7.27;;;14.20;1.00;;;;;;6310368;22;20409;-47
2023/08/05 03:44:01;;;;;;;8.57;7.63;;;14.20;1.00;;;;;;6309321;22;20141;-46
2023/08/05 03:46:28;;;;;;;8.37;7.53;;;14.20;1.00;;;;;;6309572;22;20163;-45
2023/08/05 03:48:54;;;;;;;11.10;7.67;;;14.20;1.00;;;;;;6310078;22;20843;-46
2023/08/05 03:51:19;;;;;;;10.30;7.37;;;14.20;1.00;;;;;;6309705;22;20717;-47
2023/08/05 03:53:45;;;;;;;8.50;6.97;;;14.30;1.00;;;;;;6309259;22;20490;-44
2023/08/05 03:56:11;;;;;;;9.60;7.97;;;14.30;1.00;;;;;;6309152;22;20149;-47
2023/08/05 03:58:36;;;;;;;8.03;7.33;;;14.30;1.00;;;;;;6309245;22;20132;-48
2023/08/05 04:01:02;;;;;;;9.10;7.70;;;14.30;1.00;;;;;;6310186;22;20440;-47
2023/08/05 04:03:30;;;;;;;7.87;6.97;;;14.30;1.00;;;;;;6308152;22;20377;-45
2023/08/05 04:05:56;;;;;;;7.97;7.17;;;14.20;1.00;;;;;;6306914;22;20152;-46
2023/08/05 04:08:22;;;;;;;8.30;6.77;;;14.20;1.00;;;;;;6306902;22;20603;-47
2023/08/05 04:10:48;;;;;;;9.57;7.50;;;14.30;1.00;;;;;;6307063;22;20468;-45
2023/08/05 04:16:35;;;;;;;8.60;7.80;;;14.30;1.00;;;;;;6307421;22;20158;-47
2023/08/05 04:19:00;;;;;;;7.57;6.87;;;14.30;1.00;;;;;;6307448;22;20646;-48
2023/08/05 04:21:32;;;;;;;11.33;8.43;;;14.30;1.00;;;;;;6309353;22;20156;-48
2023/08/05 04:23:59;;;;;;;8.20;7.40;;;14.30;1.00;;;;;;6308413;22;20174;-45
2023/08/05 04:26:25;;;;;;;8.47;7.67;;;14.30;1.00;;;;;;6307484;22;20346;-44
2023/08/05 04:28:51;;;;;;;11.67;8.57;;;14.30;1.00;;;;;;6307088;22;20499;-45
2023/08/05 04:31:16;;;;;;;9.00;7.40;;;14.30;1.00;;;;;;6308995;22;20541;-45
2023/08/05 04:33:43;;;;;;;10.73;7.13;;;14.30;1.00;;;;;;6308361;22;20148;-45
2023/08/05 04:36:08;;;;;;;9.03;8.00;;;14.30;1.00;;;;;;6308683;22;20236;-49
2023/08/05 04:38:34;;;;;;;8.47;7.47;;;14.30;1.00;;;;;;6307562;22;20354;-44
2023/08/05 04:41:00;;;;;;;9.10;7.90;;;14.30;1.00;;;;;;6306532;22;20226;-48
2023/08/05 04:43:25;;;;;;;10.30;8.70;;;14.30;1.00;;;;;;6306227;22;20231;-44
2023/08/05 04:45:51;;;;;;;9.87;8.90;;;14.30;1.00;;;;;;6306675;22;20152;-47
2023/08/05 04:48:17;;;;;;;8.80;7.90;;;14.30;1.00;;;;;;6306191;22;20184;-44
2023/08/05 04:50:43;;;;;;;9.23;8.33;;;14.30;1.00;;;;;;6279307;22;20132;-47
2023/08/05 04:53:08;;;;;;;8.13;7.33;;;14.30;1.00;;;;;;6305861;22;20418;-47
2023/08/05 04:55:34;;;;;;;8.20;7.33;;;14.30;1.00;;;;;;6307640;22;20154;-47
2023/08/05 04:58:00;;;;;;;8.70;7.83;;;14.30;1.00;;;;;;6307350;22;20148;-45
2023/08/05 05:00:25;;;;;;;7.87;7.17;;;14.40;1.00;;;;;;6306811;22;20156;-44
2023/08/05 05:02:51;;;;;;;8.67;7.70;;;14.40;1.00;;;;;;6306305;22;20415;-44
2023/08/05 05:05:17;;;;;;;8.23;7.43;;;14.40;1.00;;;;;;6307663;22;20211;-45
2023/08/05 05:07:43;;;;;;;10.77;7.63;;;14.50;1.00;;;;;;6306694;22;20846;-50
2023/08/05 05:10:09;;;;;;;9.80;8.70;;;14.50;1.00;;;;;;6308505;22;20155;-46
2023/08/05 05:12:34;;;;;;;9.23;8.40;;;14.50;1.00;;;;;;6307287;22;20348;-47
2023/08/05 05:15:00;;;;;;;9.30;7.50;;;14.60;1.00;;;;;;6307468;22;20148;-46
2023/08/05 05:17:31;;;;;;;8.83;8.03;;;14.60;1.00;;;;;;6307448;22;20143;-46
2023/08/05 05:19:57;;;;;;;7.83;7.13;;;14.70;1.00;;;;;;6280694;22;20388;-46
2023/08/05 05:22:23;;;;;;;10.37;7.40;;;14.70;1.00;;;;;;6307575;22;20414;-46
2023/08/05 05:24:50;;;;;;;8.40;7.50;;;14.80;1.00;;;;;;6305632;22;20547;-45
2023/08/05 05:27:17;;;;;;;9.00;7.47;;;14.80;99.90;;;;;;6306185;22;20148;-46
2023/08/05 05:29:43;;;;;;;9.00;7.20;;;14.90;99.90;;;;;;6305578;22;20433;-45
2023/08/05 05:32:09;;;;;;;7.93;7.23;;;14.90;99.90;;;;;;6306243;22;20386;-48
2023/08/05 05:34:35;;;;;;;10.07;7.33;;;14.90;99.90;;;;;;6307178;22;20402;-46
2023/08/05 05:37:00;;;;;;;12.83;8.27;;;15.00;99.90;;;;;;6304274;22;20196;-45
2023/08/05 05:39:26;;;;;;;7.40;6.70;;;15.00;99.90;;;;;;6279553;22;20151;-45
2023/08/05 05:41:51;;;;;;;8.90;7.83;;;15.00;99.90;;;;;;6305993;22;20573;-46
2023/08/05 05:44:17;;;;;;;8.43;7.53;;;15.00;99.90;;;;;;6305394;22;20128;-45
2023/08/05 05:46:43;;;;;;;9.17;8.23;;;15.10;99.90;;;;;;6277863;22;20156;-47
2023/08/05 05:49:10;;;;;;;8.43;6.40;;;15.00;99.90;;;;;;6304749;22;20187;-46
2023/08/05 05:51:35;;;;;;;7.87;6.57;;;15.10;99.90;;;;;;6303938;22;20579;-46
2023/08/05 05:54:02;;;;;;;8.10;7.30;;;15.10;99.90;;;;;;6278818;22;20369;-46
2023/08/05 05:56:28;;;;;;;9.37;8.10;;;15.10;99.90;;;;;;6305007;22;20186;-45
2023/08/05 05:58:54;;;;;;;9.97;8.93;;;15.20;99.90;;;;;;6306858;22;20398;-47
2023/08/05 06:01:20;;;;;;;12.20;10.87;;;15.20;99.90;;;;;;6306753;22;20156;-48
2023/08/05 06:03:46;;;;;;;10.03;8.97;;;15.30;99.90;;;;;;6279709;22;20489;-48
2023/08/05 06:06:12;;;;;;;8.83;7.60;;;15.30;99.90;;;;;;6306766;22;20483;-45
2023/08/05 06:08:38;;;;;;;7.87;7.07;;;15.40;99.90;;;;;;6305425;22;20194;-46
2023/08/05 06:11:04;;;;;;;7.87;7.07;;;15.50;99.90;;;;;;6304799;22;20400;-45
2023/08/05 06:13:30;;;;;;;7.40;6.80;;;15.60;99.90;;;;;;6306145;22;20793;-49
2023/08/05 06:15:56;;;;;;;7.50;6.70;;;15.70;99.90;;;;;;6306653;22;20148;-47
2023/08/05 06:18:21;;;;;;;7.10;6.50;;;15.80;99.90;;;;;;6304825;22;20389;-46
2023/08/05 06:20:48;;;;;;;8.23;7.43;;;15.90;99.90;;;;;;6304350;22;20136;-48
2023/08/05 06:23:14;;;;;;;8.10;5.90;;;16.00;72.50;;;;;;6305446;22;20190;-44
2023/08/05 06:25:40;;;;;;;7.80;6.90;;;16.20;52.30;;;;;;6304888;22;20768;-47
2023/08/05 06:28:05;;;;;;;7.93;5.87;;;16.40;1.00;;;;;;6305207;22;20545;-46
2023/08/05 06:30:31;;;;;;;7.13;6.20;;;16.60;1.00;;;;;;6308297;22;20408;-45
2023/08/05 06:32:57;;;;;;;6.73;5.83;;;16.80;1.00;;;;;;6308567;22;20472;-44
2023/08/05 06:35:22;;;;;;;17.00;15.60;;;17.00;99.90;;;;;;6308178;22;20223;-43
2023/08/05 06:37:48;;;;;;;7.17;5.97;;;17.10;99.90;;;;;;6308297;22;20462;-44
2023/08/05 06:40:14;;;;;;;7.30;6.57;;;17.20;99.90;;;;;;6308712;22;20148;-47
2023/08/05 06:42:40;;;;;;;6.80;6.20;;;17.30;20.60;;;;;;6309309;22;20224;-47
2023/08/05 06:45:06;;;;;;;6.57;5.90;;;17.50;3.70;;;;;;6280177;22;20386;-44
2023/08/05 06:47:32;;;;;;;7.00;6.07;;;17.60;1.00;;;;;;6308765;22;20368;-47
2023/08/05 06:49:58;;;;;;;7.93;6.23;;;17.60;1.00;;;;;;6308464;22;20431;-46
2023/08/05 06:52:24;;;;;;;15.47;8.10;;;17.80;99.90;;;;;;6307440;22;20447;-46
2023/08/05 06:54:49;;;;;;;6.37;5.50;;;17.90;99.90;;;;;;6306090;22;20148;-45
2023/08/05 06:57:15;;;;;;;7.40;5.67;;;18.00;99.90;;;;;;6307738;22;20193;-47
2023/08/05 06:59:41;;;;;;;6.50;5.73;;;18.00;1.00;;;;;;6306932;22;20132;-45
2023/08/05 07:02:07;;;;;;;5.93;5.33;;;18.20;1.00;;;;;;6309537;22;20151;-45
2023/08/05 07:04:32;;;;;;;7.37;5.23;;;18.40;1.00;;;;;;6308435;22;20382;-44
2023/08/05 07:06:58;;;;;;;7.03;5.07;;;18.50;99.90;;;;;;6310519;22;20381;-46
2023/08/05 07:09:24;;;;;;;6.57;5.93;;;18.50;1.00;;;;;;6309048;22;20194;-48
2023/08/05 07:11:49;;;;;;;5.93;5.40;;;18.60;1.00;;;;;;6309007;22;20462;-47
2023/08/05 07:14:15;;;;;;;8.57;4.77;;;18.70;1.00;;;;;;6309082;22;20152;-45
2023/08/05 07:16:40;;;;;;;5.27;4.77;;;18.90;99.90;;;;;;6309864;22;20152;-44
2023/08/05 07:19:06;;;;;;;5.00;4.50;;;19.00;1.00;;;;;;6309557;22;20252;-44
2023/08/05 07:21:32;;;;;;;5.40;4.60;;;19.30;99.90;;;;;;6307916;22;20152;-45
2023/08/05 07:23:58;;;;;;;6.10;4.60;;;19.40;99.90;;;;;;6308540;22;20355;-47
2023/08/05 07:26:23;;;;;;;5.27;4.77;;;19.30;99.90;;;;;;6308152;22;20133;-45
2023/08/05 07:28:49;;;;;;;6.70;5.20;;;19.50;99.90;;;;;;6308666;22;20175;-47
2023/08/05 07:31:16;;;;;;;4.73;4.33;;;19.50;1.00;;;;;;6306799;22;20148;-45
2023/08/05 07:33:46;;;;;;;4.50;4.10;;;19.50;1.00;;;;;;6306939;22;20158;-47
2023/08/05 07:36:13;;;;;;;6.10;4.93;;;19.50;1.00;;;;;;6306817;22;20471;-46
2023/08/05 07:38:40;;;;;;;4.80;4.03;;;19.60;99.90;;;;;;6305347;22;20354;-46
2023/08/05 07:41:06;;;;;;;8.83;6.27;;;19.80;99.90;;;;;;6308369;22;20796;-47
2023/08/05 07:43:35;;;;;;;15.07;5.93;;;20.00;99.90;;;;;;6308714;22;20422;-48
2023/08/05 07:46:04;;;;;;;7.50;5.00;;;20.20;1.00;;;;;;6308216;22;20379;-41
2023/08/05 07:48:36;;;;;;;4.67;4.10;;;20.40;1.00;;;;;;6280771;22;20529;-46
2023/08/05 07:51:03;;;;;;;22.03;6.80;;;20.60;1.00;;;;;;6309441;22;20343;-46
2023/08/05 07:53:30;;;;;;;7.40;4.87;;;20.70;99.90;;;;;;6308401;22;20350;-46
2023/08/05 07:55:58;;;;;;;18.10;6.97;;;20.80;99.90;;;;;;6310067;22;20668;-44
2023/08/05 07:58:24;;;;;;;29.23;8.70;;;20.90;99.90;;;;;;6282092;22;20386;-46
2023/08/05 08:00:55;;;;;;;6.87;5.03;;;20.90;99.90;;;;;;6308836;22;20639;-48
2023/08/05 08:03:23;;;;;;;17.83;7.47;;;21.00;99.90;;;;;;6307695;22;20745;-45
2023/08/05 08:05:49;;;;;;;11.10;5.33;;;21.10;27.60;;;;;;6306421;22;20351;-45
2023/08/05 08:08:14;;;;;;;5.37;4.40;;;21.20;1.00;;;;;;6281021;22;20437;-45
2023/08/05 08:10:40;;;;;;;6.00;4.10;;;21.30;1.00;;;;;;6306824;22;20480;-45
2023/08/05 08:13:05;;;;;;;5.77;3.70;;;21.60;1.00;;;;;;6306684;22;20187;-45
2023/08/05 08:15:31;;;;;;;5.13;3.70;;;21.90;1.00;;;;;;6306424;22;20209;-45
2023/08/05 08:17:57;;;;;;;4.83;4.33;;;22.20;1.00;;;;;;6307295;22;20205;-45
2023/08/05 08:20:22;;;;;;;6.57;4.47;;;22.30;99.90;;;;;;6307191;22;20239;-46
2023/08/05 08:22:48;;;;;;;7.90;4.77;;;22.60;99.90;;;;;;6306508;22;20493;-48
2023/08/05 08:25:13;;;;;;;4.33;3.83;;;22.90;99.90;;;;;;6306672;22;20588;-45
2023/08/05 08:27:39;;;;;;;6.17;3.63;;;23.20;99.90;;;;;;6305008;22;20156;-45
2023/08/05 08:30:05;;;;;;;3.63;3.27;;;23.60;99.90;;;;;;6308122;22;20452;-49
2023/08/05 08:32:31;;;;;;;5.17;3.80;;;24.00;99.90;;;;;;6307852;22;20417;-48
2023/08/05 08:34:57;;;;;;;4.50;3.50;;;24.40;99.90;;;;;;6255611;22;20401;-45
2023/08/05 08:37:22;;;;;;;4.10;3.07;;;24.50;88.00;;;;;;6307709;22;20185;-47
2023/08/05 08:39:48;;;;;;;3.37;3.07;;;24.50;45.00;;;;;;6307990;22;20183;-49
2023/08/05 08:42:15;;;;;;;6.37;3.87;;;24.60;29.90;;;;;;6308134;22;20181;-46
2023/08/05 08:44:42;;;;;;;4.00;3.60;;;24.80;8.60;;;;;;6279545;22;20132;-49
2023/08/05 08:47:08;;;;;;;4.40;3.20;;;24.70;1.00;;;;;;6306825;22;20767;-45
2023/08/05 08:49:35;;;;;;;4.17;3.60;;;24.50;1.00;;;;;;6306849;22;20429;-47
2023/08/05 08:52:00;;;;;;;3.80;3.50;;;24.60;1.00;;;;;;6279798;22;20921;-44
2023/08/05 08:54:26;;;;;;;5.67;3.23;;;24.70;1.00;;;;;;6278757;22;20394;-44
2023/08/05 08:56:52;;;;;;;3.43;3.13;;;25.10;1.00;;;;;;6304281;22;20129;-46
2023/08/05 08:59:17;;;;;;;4.20;2.73;;;25.10;1.00;;;;;;6303098;22;20150;-48
2023/08/05 09:01:45;;;;;;;3.80;3.37;;;25.30;1.00;;;;;;6305181;22;20584;-50
2023/08/05 09:04:11;;;;;;;2.97;2.70;;;25.60;1.00;;;;;;6278032;22;20246;-49
2023/08/05 09:06:39;;;;;;;3.73;2.93;;;25.40;1.00;;;;;;6279047;22;20485;-48
2023/08/05 09:09:05;;;;;;;3.57;3.20;;;25.60;1.00;;;;;;6305650;22;20437;-46
2023/08/05 09:11:30;;;;;;;5.80;5.20;;;25.80;1.00;;;;;;6305518;22;20355;-47
2023/08/05 09:13:57;;;;;;;4.20;3.53;;;26.10;1.00;;;;;;6306217;22;20473;-46
2023/08/05 09:16:24;;;;;;;2.60;2.40;;;26.30;1.00;;;;;;6278132;22;20156;-48
2023/08/05 09:18:54;;;;;;;2.40;2.20;;;26.60;1.00;;;;;;6305199;22;20378;-47
2023/08/05 09:21:27;;;;;;;3.63;2.40;;;26.70;1.00;;;;;;6279109;22;20523;-48
2023/08/05 09:23:54;;;;;;;4.07;2.50;;;26.40;1.00;;;;;;6277835;22;20382;-48
2023/08/05 09:26:30;;;;;;;5.90;3.37;;;26.20;1.00;;;;;;6304520;22;20359;-46
2023/08/05 09:28:57;;;;;;;2.70;2.33;;;25.90;1.00;;;;;;6305054;22;20471;-49
2023/08/05 09:31:23;;;;;;;3.30;2.67;;;25.90;1.00;;;;;;6303988;22;20382;-48
2023/08/05 09:33:48;;;;;;;3.10;2.33;;;26.40;1.00;;;;;;6278269;22;20381;-48
2023/08/05 09:36:14;;;;;;;2.47;2.27;;;26.90;1.00;;;;;;6304883;22;20152;-46
2023/08/05 09:38:41;;;;;;;2.90;2.13;;;27.00;1.00;;;;;;6307002;22;20646;-50
2023/08/05 09:41:07;;;;;;;22.20;4.60;;;27.60;1.00;;;;;;6279807;22;20396;-49
2023/08/05 09:43:43;;;;;;;5.50;2.80;;;28.00;1.00;;;;;;6306369;22;20447;-48
2023/08/05 09:46:12;;;;;;;3.27;2.50;;;27.90;1.00;;;;;;6306801;22;20775;-47
2023/08/05 09:48:42;;;;;;;2.30;2.10;;;27.50;1.00;;;;;;6279893;22;20491;-46
2023/08/05 09:51:15;;;;;;;2.90;2.70;;;27.30;1.00;;;;;;6279795;22;20397;-48
2023/08/05 09:53:41;;;;;;;5.17;3.10;;;27.90;1.00;;;;;;6280162;22;20454;-47
2023/08/05 09:56:09;;;;;;;25.67;4.60;;;28.90;1.00;;;;;;6280364;22;20390;-47
2023/08/05 09:58:37;;;;;;;5.50;3.20;;;29.40;1.00;;;;;;6307966;22;20389;-46
2023/08/05 10:01:08;;;;;;;3.97;3.27;;;29.40;1.00;;;;;;6280697;22;20385;-47
2023/08/05 10:03:39;;;;;;;4.27;3.60;;;30.30;1.00;;;;;;6306588;22;20868;-45
2023/08/05 10:06:07;;;;;;;6.20;3.43;;;31.60;1.00;;;;;;6306222;22;20441;-44
2023/08/05 10:08:35;;;;;;;6.10;3.30;;;32.00;1.00;;;;;;6304469;22;20809;-46
2023/08/05 10:11:01;;;;;;;7.47;3.17;;;31.20;1.00;;;;;;6303439;22;20443;-48
2023/08/05 10:13:27;;;;;;;8.77;3.00;;;30.30;1.00;;;;;;6303626;22;20353;-46
2023/08/05 10:15:53;;;;;;;4.77;3.10;;;29.40;1.00;;;;;;6251735;22;20413;-46
2023/08/05 10:18:19;;;;;;;4.17;3.80;;;28.50;1.00;;;;;;6304044;22;20608;-48
2023/08/05 10:20:52;;;;;;;3.60;3.30;;;27.80;1.00;;;;;;6303849;22;20337;-48
2023/08/05 10:23:18;;;;;;;3.30;2.90;;;27.20;1.00;;;;;;6304169;22;20466;-47
2023/08/05 10:25:49;;;;;;;3.73;3.00;;;26.80;1.00;;;;;;6302220;22;20390;-48
2023/08/05 10:28:23;;;;;;;3.43;3.13;;;26.40;1.00;;;;;;6303272;22;20425;-47
2023/08/05 10:30:51;;;;;;;3.43;2.93;;;26.20;1.00;;;;;;6305628;22;20388;-49
2023/08/05 10:33:18;;;;;;;8.83;3.37;;;26.10;1.00;;;;;;6307404;22;20401;-50
2023/08/05 10:35:46;;;;;;;3.40;3.10;;;26.00;1.00;;;;;;6306635;22;20810;-50
2023/08/05 10:38:16;;;;;;;3.60;2.60;;;26.00;1.00;;;;;;6279535;22;20473;-50
2023/08/05 10:40:48;;;;;;;3.70;2.50;;;26.10;1.00;;;;;;6306586;22;20378;-48
2023/08/05 10:43:34;;;;;;;14.33;3.40;;;26.40;1.00;;;;;;6278310;22;20476;-49
2023/08/05 10:46:19;;;;;;;4.30;2.93;;;27.00;1.00;;;;;;6278989;22;20390;-49
2023/08/05 10:48:48;;;;;;;4.97;3.30;;;28.50;1.00;;;;;;6305923;22;20540;-49
2023/08/05 10:51:18;;;;;;;27.90;6.47;;;29.80;1.00;;;;;;6305692;22;20645;-46
2023/08/05 10:53:58;;;;;;;15.80;5.60;;;30.80;1.00;;;;;;6305306;22;20717;-52
2023/08/05 10:56:33;;;;;;;6.97;3.03;;;31.30;1.00;;;;;;6306158;22;20368;-49
2023/08/05 10:59:02;;;;;;;6.97;3.20;;;31.30;1.00;;;;;;6277638;22;20390;-48
2023/08/05 11:01:56;;;;;;;3.13;2.83;;;30.60;1.00;;;;;;6306864;22;20360;-47
2023/08/05 11:04:26;;;;;;;3.30;3.00;;;29.70;1.00;;;;;;6278011;22;20812;-47
2023/08/05 11:06:52;;;;;;;3.27;2.90;;;28.80;1.00;;;;;;6304766;22;20916;-49
2023/08/05 11:09:18;;;;;;;4.60;3.37;;;28.30;1.00;;;;;;6277416;22;20441;-51
2023/08/05 11:11:49;;;;;;;3.13;2.73;;;27.90;1.00;;;;;;6277694;22;20421;-49
2023/08/05 11:14:16;;;;;;;5.03;3.17;;;27.50;1.00;;;;;;6304960;22;20217;-49
2023/08/05 11:16:45;;;;;;;17.10;5.23;;;27.40;1.00;;;;;;6304460;22;20378;-48
2023/08/05 11:19:12;;;;;;;11.73;4.53;;;27.20;1.00;;;;;;6306416;22;20808;-50
2023/08/05 11:21:38;;;;;;;3.50;2.40;;;27.00;1.00;;;;;;6280004;22;20647;-49
2023/08/05 11:24:04;;;;;;;4.10;3.30;;;27.10;1.00;;;;;;6307448;22;20442;-48
2023/08/05 11:26:30;;;;;;;3.30;2.80;;;27.30;1.00;;;;;;6307690;22;20362;-49
2023/08/05 11:29:00;;;;;;;3.87;3.00;;;27.40;1.00;;;;;;6307200;22;20410;-47
2023/08/05 11:31:26;;;;;;;5.00;3.00;;;27.80;1.00;;;;;;6308548;22;20364;-48
2023/08/05 11:33:53;;;;;;;4.70;3.47;;;28.10;1.00;;;;;;6279693;22;20378;-51
2023/08/05 11:36:25;;;;;;;2.80;2.60;;;28.90;1.00;;;;;;6253460;22;20382;-51
2023/08/05 11:38:51;;;;;;;3.33;2.50;;;29.20;1.00;;;;;;6305288;22;20350;-46
2023/08/05 11:41:17;;;;;;;3.73;3.03;;;29.40;1.00;;;;;;6280415;22;20863;-48
2023/08/05 11:43:43;;;;;;;4.40;4.00;;;29.00;1.00;;;;;;6279857;22;20216;-48
2023/08/05 11:46:32;;;;;;;3.10;2.80;;;28.40;1.00;;;;;;6278968;22;20152;-46
2023/08/05 11:49:08;;;;;;;3.57;3.03;;;27.70;1.00;;;;;;6306916;22;20175;-48
2023/08/05 11:51:50;;;;;;;3.37;3.07;;;27.10;1.00;;;;;;6307736;22;20504;-49
2023/08/05 11:54:26;;;;;;;5.00;4.50;;;26.70;1.00;;;;;;6307633;22;20453;-47
2023/08/05 11:56:52;;;;;;;4.67;4.27;;;26.30;1.00;;;;;;6306065;22;20972;-47
2023/08/05 11:59:21;;;;;;;5.13;3.83;;;26.10;1.00;;;;;;6305372;22;20460;-45
2023/08/05 12:01:46;;;;;;;6.10;3.70;;;25.90;1.00;;;;;;6278482;22;20278;-48
2023/08/05 12:04:12;;;;;;;3.70;3.40;;;25.70;1.00;;;;;;6281637;22;20717;-46
2023/08/05 12:06:38;;;;;;;4.67;3.50;;;25.40;1.00;;;;;;6256316;22;20305;-50
2023/08/05 12:09:04;;;;;;;3.60;3.30;;;25.10;1.00;;;;;;6306593;22;20195;-45
2023/08/05 12:11:30;;;;;;;3.20;2.90;;;24.70;1.00;;;;;;6305568;22;20159;-50
2023/08/05 12:13:58;;;;;;;4.10;3.60;;;24.40;1.00;;;;;;6278013;22;20378;-48
2023/08/05 12:16:24;;;;;;;5.80;3.73;;;24.20;1.00;;;;;;6308229;22;20148;-49
2023/08/05 12:18:49;;;;;;;3.53;3.23;;;23.90;1.00;;;;;;6280249;22;20401;-47
2023/08/05 12:21:15;;;;;;;4.50;3.80;;;23.70;1.00;;;;;;6277008;22;20411;-47
2023/08/05 12:23:41;;;;;;;4.77;3.63;;;23.50;1.00;;;;;;6305838;22;20281;-46
2023/08/05 12:26:10;;;;;;;4.03;3.53;;;23.20;1.00;;;;;;6305045;22;20159;-48
2023/08/05 12:28:37;;;;;;;3.73;3.43;;;22.90;1.00;;;;;;6304880;22;20998;-47
2023/08/05 12:31:03;;;;;;;3.70;3.37;;;22.80;1.00;;;;;;6307006;22;20579;-45
2023/08/05 12:33:29;;;;;;;4.50;3.60;;;22.80;1.00;;;;;;6279835;22;20421;-46
2023/08/05 12:35:55;;;;;;;4.60;3.73;;;22.80;1.00;;;;;;6306749;22;20362;-51
2023/08/05 12:38:20;;;;;;;3.33;3.03;;;22.80;1.00;;;;;;6253445;22;20152;-47
2023/08/05 12:40:46;;;;;;;4.20;3.80;;;22.60;1.00;;;;;;6305085;22;20250;-47
2023/08/05 12:43:12;;;;;;;5.90;3.67;;;22.70;1.00;;;;;;6305830;22;20151;-46
2023/08/05 12:45:38;;;;;;;4.30;3.67;;;22.80;1.00;;;;;;6305173;22;20245;-45
2023/08/05 12:48:04;;;;;;;5.40;3.33;;;22.80;1.00;;;;;;6305695;22;20406;-50
2023/08/05 12:50:29;;;;;;;3.60;2.90;;;22.90;1.00;;;;;;6307353;22;20735;-48
2023/08/05 12:52:55;;;;;;;3.70;3.40;;;22.80;1.00;;;;;;6307172;22;20144;-47